sensor_id;sensor_type;location;lat;lon;timestamp;temperature;humidity
2995;DHT22;35277;49.890;8.222;2022-09-29T00:00:35;23.20;67.40
2995;DHT22;35277;49.890;8.222;2022-09-29T00:03:03;23.20;67.40
2995;DHT22;35277;49.890;8.222;2022-09-29T00:05:31;23.20;67.40
2995;DHT22;35277;49.890;8.222;2022-09-29T00:07:59;23.20;67.50
2995;DHT22;35277;49.890;8.222;2022-09-29T00:10:27;23.20;67.50
2995;DHT22;35277;49.890;8.222;2022-09-29T00:12:56;23.20;67.50
2995;DHT22;35277;49.890;8.222;2022-09-29T00:15:24;23.20;67.50
2995;DHT22;35277;49.890;8.222;2022-09-29T00:17:52;23.20;67.50
2995;DHT22;35277;49.890;8.222;2022-09-29T00:20:39;23.20;67.50
2995;DHT22;35277;49.890;8.222;2022-09-29T00:23:07;23.20;67.50
2995;DHT22;35277;49.890;8.222;2022-09-29T00:25:35;23.20;67.50
2995;DHT22;35277;49.890;8.222;2022-09-29T00:28:04;23.20;67.60
2995;DHT22;35277;49.890;8.222;2022-09-29T00:30:32;23.20;67.50
2995;DHT22;35277;49.890;8.222;2022-09-29T00:33:00;23.20;67.60
2995;DHT22;35277;49.890;8.222;2022-09-29T00:35:27;23.20;67.60
2995;DHT22;35277;49.890;8.222;2022-09-29T00:37:55;23.20;67.60
2995;DHT22;35277;49.890;8.222;2022-09-29T00:40:23;23.20;67.60
2995;DHT22;35277;49.890;8.222;2022-09-29T00:42:51;23.20;67.60
2995;DHT22;35277;49.890;8.222;2022-09-29T00:45:22;23.20;67.60
2995;DHT22;35277;49.890;8.222;2022-09-29T00:47:59;23.20;67.60
2995;DHT22;35277;49.890;8.222;2022-09-29T00:50:36;23.20;67.70
2995;DHT22;35277;49.890;8.222;2022-09-29T00:53:06;23.20;67.70
2995;DHT22;35277;49.890;8.222;2022-09-29T00:55:41;23.20;67.70
2995;DHT22;35277;49.890;8.222;2022-09-29T00:58:16;23.20;67.70
2995;DHT22;35277;49.890;8.222;2022-09-29T01:00:46;23.20;67.70
2995;DHT22;35277;49.890;8.222;2022-09-29T01:03:17;23.20;67.80
2995;DHT22;35277;49.890;8.222;2022-09-29T01:05:50;23.20;67.70
2995;DHT22;35277;49.890;8.222;2022-09-29T01:08:23;23.10;67.70
2995;DHT22;35277;49.890;8.222;2022-09-29T01:10:51;23.20;67.80
2995;DHT22;35277;49.890;8.222;2022-09-29T01:13:20;23.20;67.80
2995;DHT22;35277;49.890;8.222;2022-09-29T01:15:50;23.10;67.70
2995;DHT22;35277;49.890;8.222;2022-09-29T01:18:18;23.10;67.70
2995;DHT22;35277;49.890;8.222;2022-09-29T01:20:52;23.20;67.80
2995;DHT22;35277;49.890;8.222;2022-09-29T01:23:59;23.10;67.70
2995;DHT22;35277;49.890;8.222;2022-09-29T01:27:00;23.20;67.90
2995;DHT22;35277;49.890;8.222;2022-09-29T01:30:03;23.20;67.90
2995;DHT22;35277;49.890;8.222;2022-09-29T01:33:01;23.10;67.80
2995;DHT22;35277;49.890;8.222;2022-09-29T01:35:39;23.10;67.80
2995;DHT22;35277;49.890;8.222;2022-09-29T01:38:16;23.10;67.80
2995;DHT22;35277;49.890;8.222;2022-09-29T01:40:49;23.10;67.80
2995;DHT22;35277;49.890;8.222;2022-09-29T01:43:24;23.10;67.80
2995;DHT22;35277;49.890;8.222;2022-09-29T01:46:00;23.10;67.80
2995;DHT22;35277;49.890;8.222;2022-09-29T01:48:32;23.10;67.80
2995;DHT22;35277;49.890;8.222;2022-09-29T01:51:08;23.10;67.80
2995;DHT22;35277;49.890;8.222;2022-09-29T01:53:40;23.10;67.80
2995;DHT22;35277;49.890;8.222;2022-09-29T01:56:13;23.10;67.80
2995;DHT22;35277;49.890;8.222;2022-09-29T01:58:49;23.10;67.80
2995;DHT22;35277;49.890;8.222;2022-09-29T02:01:21;23.10;67.80
2995;DHT22;35277;49.890;8.222;2022-09-29T02:03:54;23.10;67.80
2995;DHT22;35277;49.890;8.222;2022-09-29T02:06:26;23.10;67.80
2995;DHT22;35277;49.890;8.222;2022-09-29T02:08:59;23.10;67.80
2995;DHT22;35277;49.890;8.222;2022-09-29T02:11:31;23.10;67.90
2995;DHT22;35277;49.890;8.222;2022-09-29T02:14:03;23.10;67.90
2995;DHT22;35277;49.890;8.222;2022-09-29T02:16:38;23.10;67.80
2995;DHT22;35277;49.890;8.222;2022-09-29T02:19:12;23.10;67.90
2995;DHT22;35277;49.890;8.222;2022-09-29T02:21:42;23.10;67.90
2995;DHT22;35277;49.890;8.222;2022-09-29T02:24:10;23.10;67.90
2995;DHT22;35277;49.890;8.222;2022-09-29T02:26:39;23.10;67.90
2995;DHT22;35277;49.890;8.222;2022-09-29T02:29:08;23.10;67.90
2995;DHT22;35277;49.890;8.222;2022-09-29T02:31:36;23.10;67.90
2995;DHT22;35277;49.890;8.222;2022-09-29T02:34:06;23.10;67.90
2995;DHT22;35277;49.890;8.222;2022-09-29T02:36:41;23.10;67.90
2995;DHT22;35277;49.890;8.222;2022-09-29T02:39:21;23.10;67.90
2995;DHT22;35277;49.890;8.222;2022-09-29T02:42:00;23.10;67.90
2995;DHT22;35277;49.890;8.222;2022-09-29T02:44:42;23.10;67.90
2995;DHT22;35277;49.890;8.222;2022-09-29T02:47:30;23.10;67.90
2995;DHT22;35277;49.890;8.222;2022-09-29T02:50:21;23.10;67.90
2995;DHT22;35277;49.890;8.222;2022-09-29T02:52:58;23.10;67.90
2995;DHT22;35277;49.890;8.222;2022-09-29T02:55:34;23.10;68.00
2995;DHT22;35277;49.890;8.222;2022-09-29T02:58:11;23.10;68.00
2995;DHT22;35277;49.890;8.222;2022-09-29T03:00:41;23.10;68.00
2995;DHT22;35277;49.890;8.222;2022-09-29T03:03:10;23.10;68.00
2995;DHT22;35277;49.890;8.222;2022-09-29T03:05:38;23.10;68.00
2995;DHT22;35277;49.890;8.222;2022-09-29T03:08:07;23.10;68.00
2995;DHT22;35277;49.890;8.222;2022-09-29T03:10:35;23.10;68.00
2995;DHT22;35277;49.890;8.222;2022-09-29T03:13:02;23.10;68.00
2995;DHT22;35277;49.890;8.222;2022-09-29T03:15:30;23.10;68.00
2995;DHT22;35277;49.890;8.222;2022-09-29T03:17:58;23.10;68.00
2995;DHT22;35277;49.890;8.222;2022-09-29T03:20:32;23.10;68.00
2995;DHT22;35277;49.890;8.222;2022-09-29T03:23:00;23.10;68.00
2995;DHT22;35277;49.890;8.222;2022-09-29T03:25:29;23.00;67.90
2995;DHT22;35277;49.890;8.222;2022-09-29T03:27:57;23.10;68.00
2995;DHT22;35277;49.890;8.222;2022-09-29T03:30:24;23.10;68.00
2995;DHT22;35277;49.890;8.222;2022-09-29T03:32:52;23.10;68.00
2995;DHT22;35277;49.890;8.222;2022-09-29T03:35:20;23.00;68.00
2995;DHT22;35277;49.890;8.222;2022-09-29T03:37:48;23.10;68.00
2995;DHT22;35277;49.890;8.222;2022-09-29T03:40:16;23.10;68.00
2995;DHT22;35277;49.890;8.222;2022-09-29T03:42:46;23.10;68.00
2995;DHT22;35277;49.890;8.222;2022-09-29T03:45:13;23.10;68.00
2995;DHT22;35277;49.890;8.222;2022-09-29T03:47:41;23.00;67.90
2995;DHT22;35277;49.890;8.222;2022-09-29T03:50:09;23.10;68.00
2995;DHT22;35277;49.890;8.222;2022-09-29T03:52:37;23.00;67.90
2995;DHT22;35277;49.890;8.222;2022-09-29T03:55:05;23.10;68.10
2995;DHT22;35277;49.890;8.222;2022-09-29T03:57:33;23.10;68.10
2995;DHT22;35277;49.890;8.222;2022-09-29T04:00:03;23.00;68.00
2995;DHT22;35277;49.890;8.222;2022-09-29T04:02:33;23.10;68.00
2995;DHT22;35277;49.890;8.222;2022-09-29T04:05:02;23.00;68.00
2995;DHT22;35277;49.890;8.222;2022-09-29T04:07:29;23.00;68.00
2995;DHT22;35277;49.890;8.222;2022-09-29T04:09:57;23.00;68.00
2995;DHT22;35277;49.890;8.222;2022-09-29T04:12:25;23.00;68.00
2995;DHT22;35277;49.890;8.222;2022-09-29T04:14:53;23.00;68.00
2995;DHT22;35277;49.890;8.222;2022-09-29T04:17:22;23.00;68.10
2995;DHT22;35277;49.890;8.222;2022-09-29T04:19:50;23.00;68.20
2995;DHT22;35277;49.890;8.222;2022-09-29T04:22:18;23.10;68.40
2995;DHT22;35277;49.890;8.222;2022-09-29T04:24:45;23.00;68.40
2995;DHT22;35277;49.890;8.222;2022-09-29T04:27:13;23.10;68.50
2995;DHT22;35277;49.890;8.222;2022-09-29T04:29:41;23.10;68.50
2995;DHT22;35277;49.890;8.222;2022-09-29T04:32:09;23.10;68.60
2995;DHT22;35277;49.890;8.222;2022-09-29T04:34:39;23.10;68.60
2995;DHT22;35277;49.890;8.222;2022-09-29T04:37:06;23.10;69.50
2995;DHT22;35277;49.890;8.222;2022-09-29T04:39:36;23.10;68.70
2995;DHT22;35277;49.890;8.222;2022-09-29T04:42:04;23.10;68.80
2995;DHT22;35277;49.890;8.222;2022-09-29T04:44:32;23.10;68.80
2995;DHT22;35277;49.890;8.222;2022-09-29T04:47:00;23.10;68.70
2995;DHT22;35277;49.890;8.222;2022-09-29T04:49:28;23.10;68.80
2995;DHT22;35277;49.890;8.222;2022-09-29T04:51:57;23.10;68.70
2995;DHT22;35277;49.890;8.222;2022-09-29T04:54:24;23.10;68.80
2995;DHT22;35277;49.890;8.222;2022-09-29T04:57:02;23.10;68.70
2995;DHT22;35277;49.890;8.222;2022-09-29T04:59:30;23.10;68.70
2995;DHT22;35277;49.890;8.222;2022-09-29T05:01:58;23.10;68.80
2995;DHT22;35277;49.890;8.222;2022-09-29T05:04:26;23.10;68.80
2995;DHT22;35277;49.890;8.222;2022-09-29T05:06:54;23.00;68.60
2995;DHT22;35277;49.890;8.222;2022-09-29T05:09:23;23.10;68.70
2995;DHT22;35277;49.890;8.222;2022-09-29T05:11:54;23.10;68.70
2995;DHT22;35277;49.890;8.222;2022-09-29T05:14:22;23.10;68.70
2995;DHT22;35277;49.890;8.222;2022-09-29T05:16:49;23.00;68.60
2995;DHT22;35277;49.890;8.222;2022-09-29T05:19:17;23.00;68.60
2995;DHT22;35277;49.890;8.222;2022-09-29T05:21:45;23.00;68.60
2995;DHT22;35277;49.890;8.222;2022-09-29T05:24:13;23.00;68.50
2995;DHT22;35277;49.890;8.222;2022-09-29T05:26:42;23.10;68.70
2995;DHT22;35277;49.890;8.222;2022-09-29T05:29:10;23.10;68.70
2995;DHT22;35277;49.890;8.222;2022-09-29T05:31:38;23.00;68.70
2995;DHT22;35277;49.890;8.222;2022-09-29T05:34:05;23.00;68.70
2995;DHT22;35277;49.890;8.222;2022-09-29T05:36:33;23.00;68.90
2995;DHT22;35277;49.890;8.222;2022-09-29T05:39:01;23.00;68.90
2995;DHT22;35277;49.890;8.222;2022-09-29T05:41:29;23.00;68.90
2995;DHT22;35277;49.890;8.222;2022-09-29T05:43:58;23.00;69.00
2995;DHT22;35277;49.890;8.222;2022-09-29T05:46:27;23.10;69.10
2995;DHT22;35277;49.890;8.222;2022-09-29T05:48:54;23.10;69.10
2995;DHT22;35277;49.890;8.222;2022-09-29T05:51:23;23.10;69.10
2995;DHT22;35277;49.890;8.222;2022-09-29T05:53:52;23.10;69.20
2995;DHT22;35277;49.890;8.222;2022-09-29T05:56:21;23.10;69.20
2995;DHT22;35277;49.890;8.222;2022-09-29T05:58:50;23.10;69.20
2995;DHT22;35277;49.890;8.222;2022-09-29T06:01:20;23.10;69.20
2995;DHT22;35277;49.890;8.222;2022-09-29T06:03:48;23.10;69.20
2995;DHT22;35277;49.890;8.222;2022-09-29T06:06:19;23.10;69.20
2995;DHT22;35277;49.890;8.222;2022-09-29T06:08:48;23.10;69.20
2995;DHT22;35277;49.890;8.222;2022-09-29T06:11:19;23.10;69.20
2995;DHT22;35277;49.890;8.222;2022-09-29T06:13:48;23.10;69.10
2995;DHT22;35277;49.890;8.222;2022-09-29T06:16:19;23.10;69.00
2995;DHT22;35277;49.890;8.222;2022-09-29T06:18:47;23.10;68.90
2995;DHT22;35277;49.890;8.222;2022-09-29T06:21:17;23.10;68.90
2995;DHT22;35277;49.890;8.222;2022-09-29T06:23:45;23.10;68.90
2995;DHT22;35277;49.890;8.222;2022-09-29T06:26:15;23.10;68.80
2995;DHT22;35277;49.890;8.222;2022-09-29T06:28:49;23.10;68.70
2995;DHT22;35277;49.890;8.222;2022-09-29T06:31:19;23.10;68.60
2995;DHT22;35277;49.890;8.222;2022-09-29T06:33:48;23.10;68.50
2995;DHT22;35277;49.890;8.222;2022-09-29T06:36:17;23.00;68.10
2995;DHT22;35277;49.890;8.222;2022-09-29T06:39:03;23.00;68.00
2995;DHT22;35277;49.890;8.222;2022-09-29T06:41:31;23.00;67.80
2995;DHT22;35277;49.890;8.222;2022-09-29T06:44:01;23.00;67.60
2995;DHT22;35277;49.890;8.222;2022-09-29T06:46:30;22.90;67.30
2995;DHT22;35277;49.890;8.222;2022-09-29T06:48:58;22.90;67.10
2995;DHT22;35277;49.890;8.222;2022-09-29T06:51:26;22.90;67.00
2995;DHT22;35277;49.890;8.222;2022-09-29T06:54:06;22.90;66.80
2995;DHT22;35277;49.890;8.222;2022-09-29T06:56:38;22.90;66.70
2995;DHT22;35277;49.890;8.222;2022-09-29T06:59:06;22.80;66.40
2995;DHT22;35277;49.890;8.222;2022-09-29T07:01:35;22.80;66.20
2995;DHT22;35277;49.890;8.222;2022-09-29T07:04:03;22.80;66.10
2995;DHT22;35277;49.890;8.222;2022-09-29T07:06:30;22.80;66.00
2995;DHT22;35277;49.890;8.222;2022-09-29T07:08:58;22.80;65.90
2995;DHT22;35277;49.890;8.222;2022-09-29T07:11:27;22.80;65.80
2995;DHT22;35277;49.890;8.222;2022-09-29T07:13:55;22.80;65.60
2995;DHT22;35277;49.890;8.222;2022-09-29T07:16:22;22.80;65.40
2995;DHT22;35277;49.890;8.222;2022-09-29T07:18:52;22.80;65.10
2995;DHT22;35277;49.890;8.222;2022-09-29T07:21:20;22.70;64.80
2995;DHT22;35277;49.890;8.222;2022-09-29T07:23:48;22.70;64.80
2995;DHT22;35277;49.890;8.222;2022-09-29T07:26:17;22.70;64.80
2995;DHT22;35277;49.890;8.222;2022-09-29T07:28:46;22.70;64.80
2995;DHT22;35277;49.890;8.222;2022-09-29T07:31:15;22.70;64.70
2995;DHT22;35277;49.890;8.222;2022-09-29T07:33:44;22.70;64.70
2995;DHT22;35277;49.890;8.222;2022-09-29T07:36:16;22.70;64.70
2995;DHT22;35277;49.890;8.222;2022-09-29T07:38:45;22.70;64.60
2995;DHT22;35277;49.890;8.222;2022-09-29T07:41:13;22.70;64.50
2995;DHT22;35277;49.890;8.222;2022-09-29T07:43:41;22.70;64.50
2995;DHT22;35277;49.890;8.222;2022-09-29T07:46:09;22.70;64.40
2995;DHT22;35277;49.890;8.222;2022-09-29T07:48:37;22.70;64.30
2995;DHT22;35277;49.890;8.222;2022-09-29T07:51:06;22.70;64.30
2995;DHT22;35277;49.890;8.222;2022-09-29T07:53:36;22.70;64.30
2995;DHT22;35277;49.890;8.222;2022-09-29T07:56:05;22.80;64.40
2995;DHT22;35277;49.890;8.222;2022-09-29T07:58:34;22.80;64.40
2995;DHT22;35277;49.890;8.222;2022-09-29T08:01:03;22.80;64.40
2995;DHT22;35277;49.890;8.222;2022-09-29T08:03:32;22.80;64.90
2995;DHT22;35277;49.890;8.222;2022-09-29T08:06:00;22.80;64.50
2995;DHT22;35277;49.890;8.222;2022-09-29T08:08:27;22.80;64.50
2995;DHT22;35277;49.890;8.222;2022-09-29T08:11:02;22.80;64.50
2995;DHT22;35277;49.890;8.222;2022-09-29T08:13:31;22.80;65.40
2995;DHT22;35277;49.890;8.222;2022-09-29T08:16:00;22.80;64.60
2995;DHT22;35277;49.890;8.222;2022-09-29T08:18:31;22.80;64.60
2995;DHT22;35277;49.890;8.222;2022-09-29T08:21:00;22.90;64.80
2995;DHT22;35277;49.890;8.222;2022-09-29T08:23:30;22.90;65.20
2995;DHT22;35277;49.890;8.222;2022-09-29T08:25:59;22.90;64.80
2995;DHT22;35277;49.890;8.222;2022-09-29T08:28:30;22.90;64.80
2995;DHT22;35277;49.890;8.222;2022-09-29T08:31:01;22.90;64.90
2995;DHT22;35277;49.890;8.222;2022-09-29T08:33:31;22.90;64.90
2995;DHT22;35277;49.890;8.222;2022-09-29T08:35:59;22.90;64.90
2995;DHT22;35277;49.890;8.222;2022-09-29T08:38:30;22.90;65.00
2995;DHT22;35277;49.890;8.222;2022-09-29T08:41:03;22.90;65.00
2995;DHT22;35277;49.890;8.222;2022-09-29T08:43:36;22.90;65.00
2995;DHT22;35277;49.890;8.222;2022-09-29T08:46:09;22.90;65.10
2995;DHT22;35277;49.890;8.222;2022-09-29T08:48:41;22.90;65.20
2995;DHT22;35277;49.890;8.222;2022-09-29T08:51:28;22.90;65.20
2995;DHT22;35277;49.890;8.222;2022-09-29T08:54:15;22.90;65.20
2995;DHT22;35277;49.890;8.222;2022-09-29T08:57:03;23.00;65.40
2995;DHT22;35277;49.890;8.222;2022-09-29T08:59:33;23.00;65.40
2995;DHT22;35277;49.890;8.222;2022-09-29T09:05:20;23.00;65.50
2995;DHT22;35277;49.890;8.222;2022-09-29T09:07:55;23.00;65.50
2995;DHT22;35277;49.890;8.222;2022-09-29T09:10:38;23.00;65.50
2995;DHT22;35277;49.890;8.222;2022-09-29T09:13:31;23.00;65.60
2995;DHT22;35277;49.890;8.222;2022-09-29T09:16:13;23.00;65.60
2995;DHT22;35277;49.890;8.222;2022-09-29T09:18:57;23.00;65.60
2995;DHT22;35277;49.890;8.222;2022-09-29T09:21:33;23.00;65.70
2995;DHT22;35277;49.890;8.222;2022-09-29T09:24:13;23.00;65.70
2995;DHT22;35277;49.890;8.222;2022-09-29T09:26:45;23.00;65.70
2995;DHT22;35277;49.890;8.222;2022-09-29T09:29:18;23.00;65.70
2995;DHT22;35277;49.890;8.222;2022-09-29T09:31:54;23.00;65.70
2995;DHT22;35277;49.890;8.222;2022-09-29T09:34:28;23.10;65.90
2995;DHT22;35277;49.890;8.222;2022-09-29T09:37:12;23.10;65.90
2995;DHT22;35277;49.890;8.222;2022-09-29T09:39:46;23.10;65.90
2995;DHT22;35277;49.890;8.222;2022-09-29T09:42:18;23.10;65.90
2995;DHT22;35277;49.890;8.222;2022-09-29T09:44:50;23.10;65.90
2995;DHT22;35277;49.890;8.222;2022-09-29T09:47:25;23.10;65.90
2995;DHT22;35277;49.890;8.222;2022-09-29T09:49:56;23.10;66.00
2995;DHT22;35277;49.890;8.222;2022-09-29T09:52:30;23.10;66.00
2995;DHT22;35277;49.890;8.222;2022-09-29T09:55:00;23.10;66.00
2995;DHT22;35277;49.890;8.222;2022-09-29T10:00:30;23.20;66.20
2995;DHT22;35277;49.890;8.222;2022-09-29T10:03:03;23.10;66.20
2995;DHT22;35277;49.890;8.222;2022-09-29T10:05:34;23.10;66.20
2995;DHT22;35277;49.890;8.222;2022-09-29T10:08:06;23.20;66.40
2995;DHT22;35277;49.890;8.222;2022-09-29T10:10:34;23.20;66.40
2995;DHT22;35277;49.890;8.222;2022-09-29T10:13:12;23.20;66.40
2995;DHT22;35277;49.890;8.222;2022-09-29T10:15:42;23.20;66.40
2995;DHT22;35277;49.890;8.222;2022-09-29T10:18:16;23.20;66.40
2995;DHT22;35277;49.890;8.222;2022-09-29T10:20:44;23.20;66.40
2995;DHT22;35277;49.890;8.222;2022-09-29T10:23:26;23.20;66.40
2995;DHT22;35277;49.890;8.222;2022-09-29T10:26:01;23.20;66.40
2995;DHT22;35277;49.890;8.222;2022-09-29T10:28:38;23.20;66.40
2995;DHT22;35277;49.890;8.222;2022-09-29T10:31:17;23.20;66.40
2995;DHT22;35277;49.890;8.222;2022-09-29T10:33:49;23.20;66.40
2995;DHT22;35277;49.890;8.222;2022-09-29T10:36:18;23.20;66.20
2995;DHT22;35277;49.890;8.222;2022-09-29T10:38:49;23.20;66.10
2995;DHT22;35277;49.890;8.222;2022-09-29T10:41:17;23.20;65.90
2995;DHT22;35277;49.890;8.222;2022-09-29T10:43:47;23.20;65.90
2995;DHT22;35277;49.890;8.222;2022-09-29T10:46:46;23.20;65.80
2995;DHT22;35277;49.890;8.222;2022-09-29T10:49:16;23.20;65.70
2995;DHT22;35277;49.890;8.222;2022-09-29T10:51:54;23.20;65.60
2995;DHT22;35277;49.890;8.222;2022-09-29T10:54:23;23.20;65.60
2995;DHT22;35277;49.890;8.222;2022-09-29T10:56:53;23.20;65.60
2995;DHT22;35277;49.890;8.222;2022-09-29T10:59:22;23.20;65.50
2995;DHT22;35277;49.890;8.222;2022-09-29T11:01:54;23.20;65.50
2995;DHT22;35277;49.890;8.222;2022-09-29T11:04:25;23.20;65.50
2995;DHT22;35277;49.890;8.222;2022-09-29T11:06:54;23.20;65.50
2995;DHT22;35277;49.890;8.222;2022-09-29T11:09:27;23.20;65.60
2995;DHT22;35277;49.890;8.222;2022-09-29T11:11:56;23.20;65.60
2995;DHT22;35277;49.890;8.222;2022-09-29T11:14:30;23.20;65.60
2995;DHT22;35277;49.890;8.222;2022-09-29T11:17:00;23.20;65.70
2995;DHT22;35277;49.890;8.222;2022-09-29T11:19:30;23.30;65.70
2995;DHT22;35277;49.890;8.222;2022-09-29T11:25:06;23.30;65.70
2995;DHT22;35277;49.890;8.222;2022-09-29T11:27:53;23.30;65.70
2995;DHT22;35277;49.890;8.222;2022-09-29T11:30:33;23.30;65.80
2995;DHT22;35277;49.890;8.222;2022-09-29T11:33:12;23.30;65.80
2995;DHT22;35277;49.890;8.222;2022-09-29T11:35:53;23.30;65.90
2995;DHT22;35277;49.890;8.222;2022-09-29T11:38:32;23.30;65.90
2995;DHT22;35277;49.890;8.222;2022-09-29T11:41:08;23.30;65.90
2995;DHT22;35277;49.890;8.222;2022-09-29T11:43:43;23.30;65.90
2995;DHT22;35277;49.890;8.222;2022-09-29T11:49:25;23.30;66.80
2995;DHT22;35277;49.890;8.222;2022-09-29T11:52:11;23.30;66.00
2995;DHT22;35277;49.890;8.222;2022-09-29T11:54:57;23.30;66.00
2995;DHT22;35277;49.890;8.222;2022-09-29T11:57:41;23.30;66.00
2995;DHT22;35277;49.890;8.222;2022-09-29T12:00:12;23.30;66.90
2995;DHT22;35277;49.890;8.222;2022-09-29T12:05:58;23.30;66.10
2995;DHT22;35277;49.890;8.222;2022-09-29T12:08:45;23.30;66.20
2995;DHT22;35277;49.890;8.222;2022-09-29T12:11:22;23.30;66.20
2995;DHT22;35277;49.890;8.222;2022-09-29T12:14:16;23.30;66.20
2995;DHT22;35277;49.890;8.222;2022-09-29T12:16:51;23.30;66.20
2995;DHT22;35277;49.890;8.222;2022-09-29T12:19:23;23.30;66.20
2995;DHT22;35277;49.890;8.222;2022-09-29T12:21:53;23.40;66.30
2995;DHT22;35277;49.890;8.222;2022-09-29T12:24:29;23.30;66.20
2995;DHT22;35277;49.890;8.222;2022-09-29T12:26:58;23.40;66.30
2995;DHT22;35277;49.890;8.222;2022-09-29T12:29:32;23.40;66.30
2995;DHT22;35277;49.890;8.222;2022-09-29T12:32:04;23.40;66.40
2995;DHT22;35277;49.890;8.222;2022-09-29T12:34:41;23.40;66.40
2995;DHT22;35277;49.890;8.222;2022-09-29T12:37:16;23.40;66.40
2995;DHT22;35277;49.890;8.222;2022-09-29T12:39:54;23.40;66.40
2995;DHT22;35277;49.890;8.222;2022-09-29T12:42:36;23.30;66.30
2995;DHT22;35277;49.890;8.222;2022-09-29T12:45:09;23.40;66.50
2995;DHT22;35277;49.890;8.222;2022-09-29T12:47:53;23.40;66.50
2995;DHT22;35277;49.890;8.222;2022-09-29T12:50:26;23.40;66.40
2995;DHT22;35277;49.890;8.222;2022-09-29T12:52:59;23.40;66.50
2995;DHT22;35277;49.890;8.222;2022-09-29T12:55:40;23.40;66.50
2995;DHT22;35277;49.890;8.222;2022-09-29T12:58:14;23.40;66.50
2995;DHT22;35277;49.890;8.222;2022-09-29T13:00:49;23.40;66.50
2995;DHT22;35277;49.890;8.222;2022-09-29T13:06:55;23.40;66.60
2995;DHT22;35277;49.890;8.222;2022-09-29T13:12:53;23.40;66.70
2995;DHT22;35277;49.890;8.222;2022-09-29T13:15:35;23.40;66.70
2995;DHT22;35277;49.890;8.222;2022-09-29T13:18:39;23.40;66.70
2995;DHT22;35277;49.890;8.222;2022-09-29T13:21:33;23.40;66.70
2995;DHT22;35277;49.890;8.222;2022-09-29T13:27:30;23.40;66.80
2995;DHT22;35277;49.890;8.222;2022-09-29T13:30:04;23.40;66.90
2995;DHT22;35277;49.890;8.222;2022-09-29T13:32:38;23.40;66.90
2995;DHT22;35277;49.890;8.222;2022-09-29T13:35:12;23.40;66.90
2995;DHT22;35277;49.890;8.222;2022-09-29T13:37:46;23.40;66.90
2995;DHT22;35277;49.890;8.222;2022-09-29T13:40:19;23.40;66.90
2995;DHT22;35277;49.890;8.222;2022-09-29T13:42:48;23.40;67.00
2995;DHT22;35277;49.890;8.222;2022-09-29T13:45:42;23.40;67.00
2995;DHT22;35277;49.890;8.222;2022-09-29T13:48:45;23.40;67.10
2995;DHT22;35277;49.890;8.222;2022-09-29T13:51:23;23.40;67.20
2995;DHT22;35277;49.890;8.222;2022-09-29T13:54:23;23.40;67.20
2995;DHT22;35277;49.890;8.222;2022-09-29T13:56:58;23.40;67.30
2995;DHT22;35277;49.890;8.222;2022-09-29T13:59:27;23.40;67.30
2995;DHT22;35277;49.890;8.222;2022-09-29T14:01:57;23.40;67.30
2995;DHT22;35277;49.890;8.222;2022-09-29T14:04:44;23.40;67.30
2995;DHT22;35277;49.890;8.222;2022-09-29T14:07:15;23.40;67.40
2995;DHT22;35277;49.890;8.222;2022-09-29T14:10:05;23.40;67.40
2995;DHT22;35277;49.890;8.222;2022-09-29T14:12:40;23.40;67.50
2995;DHT22;35277;49.890;8.222;2022-09-29T14:15:12;23.40;67.40
2995;DHT22;35277;49.890;8.222;2022-09-29T14:17:46;23.40;67.50
2995;DHT22;35277;49.890;8.222;2022-09-29T14:20:20;23.40;67.50
2995;DHT22;35277;49.890;8.222;2022-09-29T14:23:00;23.30;67.50
2995;DHT22;35277;49.890;8.222;2022-09-29T14:25:52;23.30;67.50
2995;DHT22;35277;49.890;8.222;2022-09-29T14:28:38;23.30;67.50
2995;DHT22;35277;49.890;8.222;2022-09-29T14:31:19;23.30;67.50
2995;DHT22;35277;49.890;8.222;2022-09-29T14:33:50;23.30;67.50
2995;DHT22;35277;49.890;8.222;2022-09-29T14:36:20;23.30;67.50
2995;DHT22;35277;49.890;8.222;2022-09-29T14:38:53;23.30;67.50
2995;DHT22;35277;49.890;8.222;2022-09-29T14:41:43;23.30;67.50
2995;DHT22;35277;49.890;8.222;2022-09-29T14:44:17;23.30;67.50
2995;DHT22;35277;49.890;8.222;2022-09-29T14:53:34;23.30;67.60
2995;DHT22;35277;49.890;8.222;2022-09-29T14:56:15;23.30;67.50
2995;DHT22;35277;49.890;8.222;2022-09-29T14:58:54;23.30;67.50
2995;DHT22;35277;49.890;8.222;2022-09-29T15:01:26;23.30;67.50
2995;DHT22;35277;49.890;8.222;2022-09-29T15:03:56;23.40;67.60
2995;DHT22;35277;49.890;8.222;2022-09-29T15:06:27;23.30;67.50
2995;DHT22;35277;49.890;8.222;2022-09-29T15:08:57;23.30;67.50
2995;DHT22;35277;49.890;8.222;2022-09-29T15:11:29;23.30;67.40
2995;DHT22;35277;49.890;8.222;2022-09-29T15:13:58;23.40;67.40
2995;DHT22;35277;49.890;8.222;2022-09-29T15:16:36;23.40;67.40
2995;DHT22;35277;49.890;8.222;2022-09-29T15:19:20;23.40;67.50
2995;DHT22;35277;49.890;8.222;2022-09-29T15:22:00;23.40;67.40
2995;DHT22;35277;49.890;8.222;2022-09-29T15:24:40;23.40;67.40
2995;DHT22;35277;49.890;8.222;2022-09-29T15:27:12;23.40;67.40
2995;DHT22;35277;49.890;8.222;2022-09-29T15:29:45;23.40;67.40
2995;DHT22;35277;49.890;8.222;2022-09-29T15:32:20;23.40;67.40
2995;DHT22;35277;49.890;8.222;2022-09-29T15:34:50;23.40;67.50
2995;DHT22;35277;49.890;8.222;2022-09-29T15:37:23;23.40;67.50
2995;DHT22;35277;49.890;8.222;2022-09-29T15:39:51;23.40;67.40
2995;DHT22;35277;49.890;8.222;2022-09-29T15:42:21;23.50;67.60
2995;DHT22;35277;49.890;8.222;2022-09-29T15:44:58;23.50;67.60
2995;DHT22;35277;49.890;8.222;2022-09-29T15:47:28;23.50;67.50
2995;DHT22;35277;49.890;8.222;2022-09-29T15:50:03;23.50;67.50
2995;DHT22;35277;49.890;8.222;2022-09-29T15:52:33;23.60;67.70
2995;DHT22;35277;49.890;8.222;2022-09-29T15:55:01;23.60;67.70
2995;DHT22;35277;49.890;8.222;2022-09-29T15:57:39;23.60;67.70
2995;DHT22;35277;49.890;8.222;2022-09-29T16:00:41;23.60;67.70
2995;DHT22;35277;49.890;8.222;2022-09-29T16:03:12;23.60;67.60
2995;DHT22;35277;49.890;8.222;2022-09-29T16:05:52;23.60;67.50
2995;DHT22;35277;49.890;8.222;2022-09-29T16:08:24;23.70;67.60
2995;DHT22;35277;49.890;8.222;2022-09-29T16:10:56;23.70;67.70
2995;DHT22;35277;49.890;8.222;2022-09-29T16:13:27;23.70;67.90
2995;DHT22;35277;49.890;8.222;2022-09-29T16:15:58;23.70;68.30
2995;DHT22;35277;49.890;8.222;2022-09-29T16:18:30;23.70;69.10
2995;DHT22;35277;49.890;8.222;2022-09-29T16:21:03;23.70;69.40
2995;DHT22;35277;49.890;8.222;2022-09-29T16:23:37;23.80;69.70
2995;DHT22;35277;49.890;8.222;2022-09-29T16:26:12;23.80;70.40
2995;DHT22;35277;49.890;8.222;2022-09-29T16:28:59;23.80;70.80
2995;DHT22;35277;49.890;8.222;2022-09-29T16:31:29;23.90;70.80
2995;DHT22;35277;49.890;8.222;2022-09-29T16:33:59;24.00;70.70
2995;DHT22;35277;49.890;8.222;2022-09-29T16:36:29;24.00;70.50
2995;DHT22;35277;49.890;8.222;2022-09-29T16:39:04;24.00;70.30
2995;DHT22;35277;49.890;8.222;2022-09-29T16:41:33;24.00;70.20
2995;DHT22;35277;49.890;8.222;2022-09-29T16:44:12;24.00;70.20
2995;DHT22;35277;49.890;8.222;2022-09-29T16:46:45;24.10;70.20
2995;DHT22;35277;49.890;8.222;2022-09-29T16:49:16;24.00;70.10
2995;DHT22;35277;49.890;8.222;2022-09-29T16:51:47;24.10;70.20
2995;DHT22;35277;49.890;8.222;2022-09-29T16:54:19;24.00;70.00